createdAt,value
2018-01-26T00:00:07.431Z,24.93
2018-01-26T00:02:35.787Z,20.73
2018-01-26T00:05:04.193Z,17.83
2018-01-26T00:07:32.424Z,17.20
2018-01-26T00:10:00.671Z,17.53
2018-01-26T00:12:28.956Z,21.23
2018-01-26T00:14:57.197Z,15.70
2018-01-26T00:17:26.265Z,22.77
2018-01-26T00:19:54.566Z,16.93
2018-01-26T00:22:22.820Z,16.90
2018-01-26T00:24:51.061Z,20.37
2018-01-26T00:27:19.373Z,22.10
2018-01-26T00:29:47.741Z,19.73
2018-01-26T00:32:15.976Z,22.50
2018-01-26T00:34:44.239Z,19.30
2018-01-26T00:37:12.491Z,17.77
2018-01-26T00:39:40.877Z,16.50
2018-01-26T00:42:09.106Z,19.17
2018-01-26T00:44:37.382Z,18.20
2018-01-26T00:47:05.749Z,17.03
2018-01-26T00:49:34.821Z,19.37
2018-01-26T00:52:03.069Z,20.33
2018-01-26T00:54:32.098Z,17.60
2018-01-26T00:57:00.331Z,17.80
2018-01-26T00:59:28.613Z,24.67
2018-01-26T01:01:56.834Z,26.93
2018-01-26T01:04:25.068Z,20.50
2018-01-26T01:06:53.348Z,16.50
2018-01-26T01:09:21.585Z,16.87
2018-01-26T01:11:49.836Z,28.00
2018-01-26T01:14:18.277Z,29.93
2018-01-26T01:16:46.543Z,23.47
2018-01-26T01:19:14.775Z,27.60
2018-01-26T01:21:43.071Z,19.93
2018-01-26T01:24:11.302Z,19.40
2018-01-26T01:26:39.548Z,26.90
2018-01-26T01:29:07.850Z,20.20
2018-01-26T01:31:36.877Z,25.23
2018-01-26T01:34:05.878Z,22.67
2018-01-26T01:36:34.111Z,26.90
2018-01-26T01:39:02.428Z,17.50
2018-01-26T01:41:30.662Z,18.70
2018-01-26T01:43:58.944Z,18.00
2018-01-26T01:46:27.212Z,27.37
2018-01-26T01:49:14.001Z,25.70
2018-01-26T01:51:43.057Z,19.03
2018-01-26T01:54:11.283Z,20.73
2018-01-26T01:56:40.280Z,19.87
2018-01-26T01:59:09.405Z,23.23
2018-01-26T02:01:37.649Z,20.27
2018-01-26T02:04:06.756Z,21.07
2018-01-26T02:06:35.031Z,29.63
2018-01-26T02:09:03.276Z,22.83
2018-01-26T02:11:31.593Z,35.27
2018-01-26T02:13:59.890Z,20.20
2018-01-26T02:16:28.109Z,22.77
2018-01-26T02:18:56.407Z,30.77
2018-01-26T02:21:24.662Z,22.23
2018-01-26T02:23:52.914Z,21.23
2018-01-26T02:26:21.217Z,36.40
2018-01-26T02:28:49.521Z,32.97
2018-01-26T02:31:17.783Z,33.10
2018-01-26T02:33:46.072Z,20.80
2018-01-26T02:36:14.301Z,25.10
2018-01-26T02:38:42.597Z,27.10
2018-01-26T02:41:11.736Z,27.67
2018-01-26T02:43:39.997Z,31.63
2018-01-26T02:46:08.246Z,30.20
2018-01-26T02:48:37.283Z,20.40
2018-01-26T02:51:05.525Z,20.90
2018-01-26T02:53:33.811Z,18.57
2018-01-26T02:56:02.066Z,21.80
2018-01-26T02:58:31.062Z,19.10
2018-01-26T03:01:00.241Z,18.93
2018-01-26T03:03:28.482Z,19.97
2018-01-26T03:05:56.734Z,20.73
2018-01-26T03:08:25.012Z,16.33
2018-01-26T03:10:53.284Z,17.73
2018-01-26T03:13:21.550Z,18.27
2018-01-26T03:15:49.813Z,18.40
2018-01-26T03:18:18.122Z,19.80
2018-01-26T03:20:46.385Z,17.67
2018-01-26T03:23:14.635Z,16.80
2018-01-26T03:25:43.718Z,16.87
2018-01-26T03:28:11.951Z,17.57
2018-01-26T03:30:40.179Z,15.73
2018-01-26T03:33:09.212Z,18.50
2018-01-26T03:35:37.445Z,20.53
2018-01-26T03:38:06.542Z,15.57
2018-01-26T03:40:34.818Z,19.67
2018-01-26T03:43:03.815Z,16.90
2018-01-26T03:45:32.870Z,16.30
2018-01-26T03:48:01.111Z,18.63
2018-01-26T03:50:29.338Z,16.13
2018-01-26T03:52:57.625Z,16.23
2018-01-26T03:55:25.871Z,15.13
2018-01-26T03:57:54.139Z,19.10
2018-01-26T04:00:22.355Z,14.27
2018-01-26T04:02:51.353Z,18.47
2018-01-26T04:05:19.617Z,21.20
2018-01-26T04:07:47.845Z,19.30
2018-01-26T04:10:16.222Z,14.17
2018-01-26T04:12:44.467Z,22.63
2018-01-26T04:15:12.775Z,14.50
2018-01-26T04:17:41.035Z,14.63
2018-01-26T04:20:09.317Z,17.60
2018-01-26T04:22:37.705Z,20.37
2018-01-26T04:25:05.965Z,23.57
2018-01-26T04:27:34.214Z,22.67
2018-01-26T04:30:02.550Z,15.13
2018-01-26T04:32:30.831Z,16.23
2018-01-26T04:34:59.168Z,14.23
2018-01-26T04:37:27.502Z,26.80
2018-01-26T04:39:55.750Z,28.27
2018-01-26T04:42:24.004Z,15.33
2018-01-26T04:44:52.299Z,13.50
2018-01-26T04:47:24.081Z,20.03
2018-01-26T04:49:52.332Z,14.23
2018-01-26T04:52:20.571Z,18.97
2018-01-26T04:54:48.882Z,17.50
2018-01-26T04:57:17.106Z,18.03
2018-01-26T04:59:46.107Z,13.70
2018-01-26T05:02:15.137Z,19.13
2018-01-26T05:04:43.392Z,19.43
2018-01-26T05:07:11.634Z,18.43
2018-01-26T05:09:39.958Z,13.90
2018-01-26T05:12:08.199Z,17.07
2018-01-26T05:14:37.181Z,14.13
2018-01-26T05:17:06.310Z,19.30
2018-01-26T05:19:34.559Z,19.20
2018-01-26T05:22:03.568Z,18.43
2018-01-26T05:24:31.877Z,16.13
2018-01-26T05:27:00.125Z,12.67
2018-01-26T05:29:28.386Z,15.43
2018-01-26T05:31:56.649Z,13.00
2018-01-26T05:34:24.941Z,19.27
2018-01-26T05:36:53.156Z,15.90
2018-01-26T05:39:21.402Z,14.30
2018-01-26T05:41:49.667Z,15.87
2018-01-26T05:44:18.658Z,13.00
2018-01-26T05:46:46.908Z,13.40
2018-01-26T05:49:16.046Z,20.90
2018-01-26T05:51:44.334Z,18.90
2018-01-26T05:54:12.577Z,17.07
2018-01-26T05:56:40.837Z,13.33
2018-01-26T05:59:09.865Z,21.47
2018-01-26T06:01:38.157Z,20.23
2018-01-26T06:04:06.435Z,19.90
2018-01-26T06:06:34.737Z,17.83
2018-01-26T06:09:02.999Z,13.90
2018-01-26T06:11:31.238Z,14.93
2018-01-26T06:13:59.481Z,16.70
2018-01-26T06:16:28.553Z,13.57
2018-01-26T06:18:56.820Z,20.17
2018-01-26T06:21:25.102Z,15.10
2018-01-26T06:23:53.375Z,14.30
2018-01-26T06:26:21.634Z,13.07
2018-01-26T06:28:49.882Z,15.70
2018-01-26T06:31:18.202Z,24.80
2018-01-26T06:33:46.509Z,21.97
2018-01-26T06:36:14.820Z,23.27
2018-01-26T06:38:43.093Z,22.93
2018-01-26T06:41:11.335Z,14.07
2018-01-26T06:43:40.349Z,15.37
2018-01-26T06:46:08.802Z,13.83
2018-01-26T06:48:37.059Z,15.57
2018-01-26T06:51:05.346Z,14.43
2018-01-26T06:53:33.632Z,28.80
2018-01-26T06:56:01.898Z,14.10
2018-01-26T06:58:30.136Z,14.80
2018-01-26T07:00:58.458Z,16.80
2018-01-26T07:03:26.709Z,19.07
2018-01-26T07:05:54.981Z,13.90
2018-01-26T07:08:23.348Z,14.17
2018-01-26T07:10:51.652Z,14.60
2018-01-26T07:13:19.909Z,15.47
2018-01-26T07:15:48.190Z,14.50
2018-01-26T07:18:16.459Z,13.10
2018-01-26T07:20:44.738Z,20.70
2018-01-26T07:23:13.185Z,14.93
2018-01-26T07:25:41.528Z,16.60
2018-01-26T07:28:09.836Z,21.67
2018-01-26T07:30:38.118Z,27.57
2018-01-26T07:33:06.398Z,29.37
2018-01-26T07:35:34.642Z,16.77
2018-01-26T07:38:03.762Z,17.77
2018-01-26T07:40:32.012Z,17.37
2018-01-26T07:43:01.052Z,17.13
2018-01-26T07:45:29.333Z,24.53
2018-01-26T07:47:57.618Z,17.73
2018-01-26T07:50:25.869Z,22.47
2018-01-26T07:52:54.279Z,16.57
2018-01-26T07:55:22.539Z,18.77
2018-01-26T07:57:50.840Z,27.13
2018-01-26T08:00:19.237Z,37.37
2018-01-26T08:02:48.269Z,18.27
2018-01-26T08:05:16.576Z,28.90
2018-01-26T08:07:44.877Z,21.30
2018-01-26T08:10:13.133Z,21.20
2018-01-26T08:12:41.986Z,21.37
2018-01-26T08:15:10.594Z,19.27
2018-01-26T08:17:38.918Z,18.73
2018-01-26T08:20:07.958Z,20.10
2018-01-26T08:22:36.296Z,19.87
2018-01-26T08:25:04.542Z,22.37
2018-01-26T08:27:32.853Z,36.00
2018-01-26T08:30:01.246Z,20.43
2018-01-26T08:32:29.486Z,20.77
2018-01-26T08:34:58.513Z,23.90
2018-01-26T08:37:26.793Z,33.70
2018-01-26T08:39:55.023Z,26.60
2018-01-26T08:42:24.036Z,22.57
2018-01-26T08:44:53.080Z,23.57
2018-01-26T08:47:21.327Z,21.83
2018-01-26T08:49:49.560Z,23.40
2018-01-26T08:52:17.866Z,22.37
2018-01-26T08:54:46.100Z,26.07
2018-01-26T08:57:14.334Z,28.07
2018-01-26T08:59:42.612Z,25.27
2018-01-26T09:02:10.881Z,21.60
2018-01-26T09:04:39.165Z,28.73
2018-01-26T09:07:08.214Z,26.10
2018-01-26T09:09:37.231Z,30.10
2018-01-26T09:12:05.519Z,31.07
2018-01-26T09:14:33.797Z,23.10
2018-01-26T09:17:02.047Z,28.80
2018-01-26T09:19:30.296Z,20.63
2018-01-26T09:21:58.585Z,24.40
2018-01-26T09:24:27.601Z,20.63
2018-01-26T09:26:55.858Z,20.40
2018-01-26T09:29:24.163Z,25.03
2018-01-26T09:31:52.456Z,19.70
2018-01-26T09:34:20.697Z,22.40
2018-01-26T09:36:49.084Z,28.70
2018-01-26T09:39:17.318Z,23.93
2018-01-26T09:41:45.578Z,22.80
2018-01-26T09:44:13.876Z,24.43
2018-01-26T09:46:42.309Z,21.47
2018-01-26T09:49:11.386Z,30.53
2018-01-26T09:51:39.654Z,30.70
2018-01-26T09:54:07.932Z,24.33
2018-01-26T09:56:36.185Z,31.13
2018-01-26T09:59:05.224Z,21.00
2018-01-26T10:01:33.484Z,30.10
2018-01-26T10:04:01.734Z,30.10
2018-01-26T10:06:30.794Z,24.57
2018-01-26T10:08:59.038Z,24.43
2018-01-26T10:11:27.269Z,25.70
2018-01-26T10:13:55.541Z,25.20
2018-01-26T10:16:24.562Z,25.10
2018-01-26T10:18:52.835Z,21.50
2018-01-26T10:21:21.112Z,29.40
2018-01-26T10:23:49.353Z,32.57
2018-01-26T10:26:17.612Z,29.77
2018-01-26T10:28:45.889Z,32.17
2018-01-26T10:31:14.147Z,22.90
2018-01-26T10:33:42.390Z,22.07
2018-01-26T10:36:10.672Z,30.70
2018-01-26T10:38:38.929Z,28.77
2018-01-26T10:41:07.911Z,37.20
2018-01-26T10:43:36.977Z,30.83
2018-01-26T10:46:05.220Z,28.47
2018-01-26T10:48:33.467Z,32.90
2018-01-26T10:51:01.772Z,21.80
2018-01-26T10:53:30.012Z,22.30
2018-01-26T10:55:59.024Z,21.57
2018-01-26T10:58:27.293Z,32.50
2018-01-26T11:00:56.305Z,27.77
2018-01-26T11:03:24.554Z,21.57
2018-01-26T11:05:53.777Z,34.80
2018-01-26T11:08:22.060Z,21.23
2018-01-26T11:10:50.296Z,23.47
2018-01-26T11:13:19.358Z,22.63
2018-01-26T11:15:47.596Z,31.60
2018-01-26T11:18:15.877Z,31.03
2018-01-26T11:20:44.950Z,33.00
2018-01-26T11:23:13.172Z,33.70
2018-01-26T11:25:41.401Z,37.87
2018-01-26T11:28:09.687Z,27.60
2018-01-26T11:30:37.914Z,29.80
2018-01-26T11:33:06.141Z,28.13
2018-01-26T11:35:34.445Z,34.70
2018-01-26T11:38:02.672Z,26.90
2018-01-26T11:40:30.968Z,28.53
2018-01-26T11:42:59.245Z,26.63
2018-01-26T11:45:27.485Z,26.47
2018-01-26T11:47:56.492Z,24.07
2018-01-26T11:50:24.779Z,23.20
2018-01-26T11:52:53.027Z,30.70
2018-01-26T11:55:22.040Z,26.30
2018-01-26T11:57:50.666Z,30.60
2018-01-26T12:00:18.905Z,28.47
2018-01-26T12:02:47.158Z,25.90
2018-01-26T12:05:16.227Z,28.73
2018-01-26T12:07:44.463Z,29.97
2018-01-26T12:10:12.695Z,30.70
2018-01-26T12:12:41.028Z,29.10
2018-01-26T12:15:09.286Z,21.43
2018-01-26T12:17:37.700Z,30.00
2018-01-26T12:20:06.188Z,22.90
2018-01-26T12:22:35.271Z,22.27
2018-01-26T12:25:03.535Z,22.50
2018-01-26T12:27:31.843Z,24.20
2018-01-26T12:30:00.128Z,29.80
2018-01-26T12:32:28.406Z,25.53
2018-01-26T12:34:57.463Z,30.40
2018-01-26T12:37:25.714Z,33.13
2018-01-26T12:39:53.953Z,26.20
2018-01-26T12:42:23.027Z,49.23
2018-01-26T12:44:51.320Z,36.90
2018-01-26T12:47:19.579Z,28.37
2018-01-26T12:49:47.851Z,35.27
2018-01-26T12:52:16.089Z,29.07
2018-01-26T12:54:44.328Z,33.77
2018-01-26T12:57:13.408Z,26.53
2018-01-26T12:59:41.687Z,31.30
2018-01-26T13:02:09.933Z,29.03
2018-01-26T13:04:38.201Z,22.40
2018-01-26T13:07:06.440Z,30.67
2018-01-26T13:09:35.478Z,25.60
2018-01-26T13:12:03.769Z,25.57
2018-01-26T13:14:32.025Z,24.63
2018-01-26T13:17:00.297Z,35.80
2018-01-26T13:19:28.574Z,29.13
2018-01-26T13:21:56.802Z,26.73
2018-01-26T13:24:25.819Z,22.90
2018-01-26T13:26:54.134Z,23.33
2018-01-26T13:29:22.373Z,24.57
2018-01-26T13:31:50.674Z,25.23
2018-01-26T13:34:19.017Z,22.90
2018-01-26T13:36:47.307Z,32.90
2018-01-26T13:39:15.639Z,27.10
2018-01-26T13:41:44.681Z,30.93
2018-01-26T13:44:12.950Z,28.40
2018-01-26T13:46:41.952Z,30.20
2018-01-26T13:49:10.287Z,39.40
2018-01-26T13:51:39.308Z,26.83
2018-01-26T13:54:07.597Z,33.40
2018-01-26T13:56:35.943Z,27.90
2018-01-26T13:59:04.317Z,31.13
2018-01-26T14:01:33.392Z,33.80
2018-01-26T14:04:01.744Z,29.77
2018-01-26T14:06:29.998Z,35.80
2018-01-26T14:08:58.295Z,39.70
2018-01-26T14:11:26.643Z,39.93
2018-01-26T14:13:54.916Z,41.60
2018-01-26T14:16:23.195Z,38.40
2018-01-26T14:18:51.515Z,41.13
2018-01-26T14:21:19.751Z,43.67
2018-01-26T14:23:48.362Z,39.80
2018-01-26T14:26:16.714Z,34.10
2018-01-26T14:28:44.958Z,40.83
2018-01-26T14:31:13.297Z,41.20
2018-01-26T14:33:41.593Z,35.10
2018-01-26T14:36:10.613Z,38.90
2018-01-26T14:38:38.868Z,31.67
2018-01-26T14:41:07.909Z,25.33
2018-01-26T14:43:36.149Z,25.17
2018-01-26T14:46:05.135Z,30.27
2018-01-26T14:48:34.186Z,37.40
2018-01-26T14:51:02.483Z,35.70
2018-01-26T14:53:30.717Z,38.70
2018-01-26T14:55:59.027Z,39.87
2018-01-26T14:58:27.306Z,38.43
2018-01-26T15:00:55.550Z,41.57
2018-01-26T15:03:23.817Z,42.03
2018-01-26T15:05:52.104Z,51.17
2018-01-26T15:08:20.355Z,43.67
2018-01-26T15:10:48.616Z,45.47
2018-01-26T15:13:17.631Z,41.03
2018-01-26T15:15:45.896Z,41.57
2018-01-26T15:18:14.212Z,40.43
2018-01-26T15:20:42.463Z,28.40
2018-01-26T15:23:10.761Z,42.30
2018-01-26T15:25:39.474Z,44.77
2018-01-26T15:28:07.729Z,42.20
2018-01-26T15:30:35.990Z,39.10
2018-01-26T15:33:04.338Z,23.77
2018-01-26T15:35:33.334Z,37.90
2018-01-26T15:38:01.575Z,40.30
2018-01-26T15:40:29.898Z,39.73
2018-01-26T15:42:58.161Z,39.03
2018-01-26T15:45:26.413Z,23.43
2018-01-26T15:47:55.454Z,21.80
2018-01-26T15:50:23.692Z,23.30
2018-01-26T15:52:52.711Z,22.07
2018-01-26T15:55:20.989Z,23.83
2018-01-26T15:57:49.227Z,23.13
2018-01-26T16:00:17.462Z,23.43
2018-01-26T16:02:45.794Z,37.40
2018-01-26T16:05:14.791Z,34.73
2018-01-26T16:07:43.856Z,25.40
2018-01-26T16:10:12.146Z,22.90
2018-01-26T16:12:41.152Z,26.70
2018-01-26T16:15:09.401Z,22.80
2018-01-26T16:17:37.700Z,25.33
2018-01-26T16:20:06.695Z,24.17
2018-01-26T16:22:34.962Z,23.50
2018-01-26T16:25:03.249Z,42.90
2018-01-26T16:27:31.570Z,41.53
2018-01-26T16:29:59.917Z,43.20
2018-01-26T16:32:28.322Z,27.80
2018-01-26T16:34:56.564Z,30.87
2018-01-26T16:37:24.814Z,76.43
2018-01-26T16:39:53.862Z,50.20
2018-01-26T16:42:22.151Z,58.53
2018-01-26T16:44:50.379Z,76.10
2018-01-26T16:47:18.679Z,61.43
2018-01-26T16:49:46.928Z,50.10
2018-01-26T16:52:15.167Z,52.50
2018-01-26T16:54:44.247Z,67.93
2018-01-26T16:57:12.550Z,52.13
2018-01-26T16:59:40.827Z,51.43
2018-01-26T17:02:09.124Z,100.87
2018-01-26T17:04:37.379Z,52.10
2018-01-26T17:07:06.528Z,121.23
2018-01-26T17:09:34.793Z,112.83
2018-01-26T17:12:03.038Z,81.30
2018-01-26T17:14:31.371Z,50.87
2018-01-26T17:16:59.655Z,75.33
2018-01-26T17:19:27.992Z,75.80
2018-01-26T17:21:56.278Z,39.33
2018-01-26T17:24:24.531Z,82.37
2018-01-26T17:26:52.877Z,64.43
2018-01-26T17:29:21.165Z,36.63
2018-01-26T17:31:50.201Z,60.60
2018-01-26T17:34:18.547Z,55.30
2018-01-26T17:36:47.590Z,37.60
2018-01-26T17:39:15.828Z,50.20
2018-01-26T17:41:44.114Z,35.07
2018-01-26T17:44:12.355Z,55.07
2018-01-26T17:46:40.660Z,39.70
2018-01-26T17:49:09.010Z,52.43
2018-01-26T17:51:38.053Z,48.23
2018-01-26T17:54:06.400Z,38.17
2018-01-26T17:56:34.637Z,59.17
2018-01-26T17:59:02.890Z,85.57
2018-01-26T18:01:31.200Z,107.00
2018-01-26T18:03:59.449Z,95.27
2018-01-26T18:06:27.696Z,138.07
2018-01-26T18:08:56.095Z,42.00
2018-01-26T18:11:24.390Z,104.17
2018-01-26T18:13:52.718Z,113.13
2018-01-26T18:16:21.045Z,92.80
2018-01-26T18:18:49.349Z,98.53
2018-01-26T18:21:18.449Z,85.27
2018-01-26T18:23:46.694Z,95.67
2018-01-26T18:26:14.971Z,99.83
2018-01-26T18:28:43.307Z,96.93
2018-01-26T18:31:11.674Z,84.40
2018-01-26T18:33:39.934Z,81.70
2018-01-26T18:36:08.973Z,75.93
2018-01-26T18:38:37.305Z,58.10
2018-01-26T18:41:06.354Z,64.03
2018-01-26T18:43:34.591Z,79.43
2018-01-26T18:46:02.934Z,81.20
2018-01-26T18:48:31.245Z,64.83
2018-01-26T18:50:59.506Z,60.20
2018-01-26T18:53:28.954Z,47.17
2018-01-26T18:55:57.228Z,56.07
2018-01-26T18:58:25.505Z,79.83
2018-01-26T19:00:53.845Z,82.80
2018-01-26T19:03:22.139Z,74.20
2018-01-26T19:05:51.206Z,72.77
2018-01-26T19:08:19.462Z,48.13
2018-01-26T19:10:47.804Z,60.93
2018-01-26T19:13:16.033Z,59.03
2018-01-26T19:15:45.152Z,57.80
2018-01-26T19:18:13.445Z,73.53
2018-01-26T19:20:41.769Z,69.30
2018-01-26T19:23:10.900Z,53.53
2018-01-26T19:25:39.139Z,52.50
2018-01-26T19:28:07.365Z,56.17
2018-01-26T19:30:36.461Z,60.53
2018-01-26T19:33:04.729Z,47.30
2018-01-26T19:35:33.043Z,49.70
2018-01-26T19:38:01.328Z,50.17
2018-01-26T19:40:29.608Z,67.20
2018-01-26T19:42:57.937Z,66.13
2018-01-26T19:45:26.367Z,60.37
2018-01-26T19:47:54.901Z,50.33
2018-01-26T19:50:23.250Z,48.20
2018-01-26T19:52:52.261Z,61.67
2018-01-26T19:55:20.546Z,48.77
2018-01-26T19:57:48.945Z,62.33
2018-01-26T20:00:17.967Z,51.10
2018-01-26T20:02:46.180Z,54.97
2018-01-26T20:05:38.096Z,65.10
2018-01-26T20:08:30.686Z,70.50
2018-01-26T20:10:58.972Z,58.70
2018-01-26T20:13:27.978Z,51.60
2018-01-26T20:16:03.681Z,63.83
2018-01-26T20:18:32.417Z,62.07
2018-01-26T20:21:01.532Z,66.93
2018-01-26T20:23:29.836Z,60.70
2018-01-26T20:25:58.207Z,57.77
2018-01-26T20:28:26.476Z,75.97
2018-01-26T20:30:54.846Z,79.87
2018-01-26T20:33:23.092Z,52.53
2018-01-26T20:35:51.569Z,54.90
2018-01-26T20:38:19.903Z,67.57
2018-01-26T20:40:48.177Z,58.43
2018-01-26T20:43:16.439Z,60.50
2018-01-26T20:45:44.745Z,57.33
2018-01-26T20:48:13.041Z,70.97
2018-01-26T20:50:41.262Z,62.10
2018-01-26T20:53:09.554Z,52.90
2018-01-26T20:55:37.831Z,59.43
2018-01-26T20:58:06.123Z,56.90
2018-01-26T21:00:34.414Z,66.63
2018-01-26T21:03:02.794Z,60.80
2018-01-26T21:05:31.074Z,52.47
2018-01-26T21:08:08.793Z,51.50
2018-01-26T21:10:37.264Z,49.37
2018-01-26T21:13:05.543Z,46.93
2018-01-26T21:15:33.814Z,49.57
2018-01-26T21:18:02.578Z,61.37
2018-01-26T21:20:30.905Z,50.17
2018-01-26T21:22:59.920Z,57.83
2018-01-26T21:25:28.160Z,55.13
2018-01-26T21:27:56.422Z,55.77
2018-01-26T21:30:24.686Z,59.50
2018-01-26T21:32:52.921Z,54.37
2018-01-26T21:35:21.204Z,54.80
2018-01-26T21:37:49.502Z,57.50
2018-01-26T21:40:17.846Z,60.83
2018-01-26T21:42:46.113Z,59.50
2018-01-26T21:45:14.394Z,60.00
2018-01-26T21:47:42.673Z,62.73
2018-01-26T21:50:10.941Z,60.60
2018-01-26T21:52:39.260Z,58.37
2018-01-26T21:55:07.514Z,56.33
2018-01-26T21:57:35.797Z,60.77
2018-01-26T22:00:04.042Z,55.20
2018-01-26T22:02:32.277Z,56.40
2018-01-26T22:05:06.129Z,57.17
2018-01-26T22:07:40.177Z,54.00
2018-01-26T22:10:09.233Z,51.00
2018-01-26T22:12:37.476Z,51.13
2018-01-26T22:15:05.713Z,53.23
2018-01-26T22:17:34.004Z,52.73
2018-01-26T22:20:02.331Z,45.03
2018-01-26T22:22:31.330Z,49.33
2018-01-26T22:24:59.646Z,50.03
2018-01-26T22:27:27.883Z,43.10
2018-01-26T22:29:56.118Z,48.33
2018-01-26T22:32:25.167Z,47.60
2018-01-26T22:34:53.387Z,48.87
2018-01-26T22:37:21.629Z,42.67
2018-01-26T22:39:50.846Z,48.47
2018-01-26T22:42:19.088Z,54.90
2018-01-26T22:44:47.333Z,43.00
2018-01-26T22:47:16.378Z,42.93
2018-01-26T22:49:44.628Z,39.87
2018-01-26T22:52:12.903Z,52.37
2018-01-26T22:54:41.165Z,46.63
2018-01-26T22:57:09.410Z,48.83
2018-01-26T22:59:37.633Z,51.23
2018-01-26T23:02:05.924Z,53.13
2018-01-26T23:04:34.190Z,49.23
2018-01-26T23:07:02.454Z,48.27
2018-01-26T23:09:30.766Z,49.37
2018-01-26T23:11:59.002Z,51.53
2018-01-26T23:14:27.231Z,51.10
2018-01-26T23:16:55.510Z,47.10
2018-01-26T23:19:23.757Z,47.60
2018-01-26T23:21:51.980Z,41.93
2018-01-26T23:24:21.027Z,48.57
2018-01-26T23:26:49.311Z,45.87
2018-01-26T23:29:17.557Z,37.67
2018-01-26T23:31:45.840Z,43.57
2018-01-26T23:34:14.082Z,44.43
2018-01-26T23:36:43.073Z,43.00
2018-01-26T23:39:12.175Z,44.07
2018-01-26T23:41:40.410Z,41.80
2018-01-26T23:44:08.659Z,44.17
2018-01-26T23:46:36.942Z,42.13
2018-01-26T23:49:05.331Z,42.50
2018-01-26T23:51:33.589Z,34.93
2018-01-26T23:54:01.872Z,44.63
2018-01-26T23:56:30.104Z,44.67
2018-01-26T23:58:59.102Z,43.73
